Time;durP1;ratioP1;P1;durP2;ratioP2;P2;SDS_P1;SDS_P2;PMS_P1;PMS_P2;Temp;Humidity;BMP_temperature;BMP_pressure;BME280_temperature;BME280_humidity;BME280_pressure;Samples;Min_cycle;Max_cycle;Signal;HPM_P1;HPM_P2
2023/12/01 00:02:25;;;;;;;87.67;27.77;;;0.40;99.90;;;;;;5014206;28;20217;-50
2023/12/01 00:04:54;;;;;;;88.97;28.87;;;0.40;99.90;;;;;;5007538;28;20194;-49
2023/12/01 00:07:23;;;;;;;84.83;27.03;;;0.40;99.90;;;;;;5011075;28;20201;-51
2023/12/01 00:09:52;;;;;;;82.17;27.20;;;0.40;99.90;;;;;;5013514;28;20229;-51
2023/12/01 00:12:20;;;;;;;86.70;27.90;;;0.40;99.90;;;;;;5008009;28;20222;-53
2023/12/01 00:14:48;;;;;;;84.70;26.50;;;0.40;99.90;;;;;;5012775;28;20248;-51
2023/12/01 00:17:17;;;;;;;75.47;26.10;;;0.50;99.90;;;;;;5009227;28;20603;-51
2023/12/01 00:19:45;;;;;;;87.87;27.90;;;0.50;99.90;;;;;;5013696;28;20190;-52
2023/12/01 00:22:15;;;;;;;81.27;25.93;;;0.50;99.90;;;;;;5010375;28;20217;-50
2023/12/01 00:24:43;;;;;;;86.47;26.77;;;0.40;99.90;;;;;;5008161;28;20259;-53
2023/12/01 00:27:11;;;;;;;81.23;26.00;;;0.40;99.90;;;;;;5011912;28;20222;-50
2023/12/01 00:29:39;;;;;;;80.57;26.87;;;0.40;99.90;;;;;;5012132;28;20222;-54
2023/12/01 00:32:08;;;;;;;79.47;25.93;;;0.50;99.90;;;;;;5011811;28;20241;-50
2023/12/01 00:34:36;;;;;;;78.47;24.10;;;0.50;99.90;;;;;;5012587;28;20277;-52
2023/12/01 00:37:04;;;;;;;73.93;23.43;;;0.40;99.90;;;;;;5011587;28;20337;-51
2023/12/01 00:39:34;;;;;;;73.77;23.50;;;0.20;99.90;;;;;;5008815;28;20233;-52
2023/12/01 00:42:03;;;;;;;77.60;24.40;;;0.10;99.90;;;;;;4994589;28;20312;-52
2023/12/01 00:44:31;;;;;;;73.07;24.63;;;0.20;99.90;;;;;;5012456;28;20229;-50
2023/12/01 00:46:59;;;;;;;87.30;24.37;;;0.20;99.90;;;;;;5010370;28;20190;-52
2023/12/01 00:49:28;;;;;;;78.77;23.67;;;0.20;99.90;;;;;;5011139;28;20287;-54
2023/12/01 00:51:57;;;;;;;76.50;24.13;;;0.30;99.90;;;;;;5011671;28;20218;-54
2023/12/01 00:54:25;;;;;;;89.40;26.33;;;0.30;99.90;;;;;;5013385;28;20249;-53
2023/12/01 00:56:55;;;;;;;82.80;24.73;;;0.30;99.90;;;;;;5010933;28;20222;-52
2023/12/01 00:59:24;;;;;;;82.33;24.93;;;0.30;99.90;;;;;;5010583;28;20347;-52
2023/12/01 01:01:52;;;;;;;72.93;22.87;;;0.30;99.90;;;;;;5013234;28;20201;-50
2023/12/01 01:04:20;;;;;;;85.93;25.63;;;0.30;99.90;;;;;;5010482;28;20197;-55
2023/12/01 01:06:49;;;;;;;82.40;24.70;;;0.30;99.90;;;;;;5016158;28;20228;-54
2023/12/01 01:09:17;;;;;;;81.83;24.33;;;0.30;99.90;;;;;;5013280;28;20227;-50
2023/12/01 01:11:45;;;;;;;76.93;24.77;;;0.30;99.90;;;;;;5013658;28;20218;-54
2023/12/01 01:14:15;;;;;;;84.87;24.67;;;0.40;99.90;;;;;;5011846;28;20679;-54
2023/12/01 01:16:45;;;;;;;82.40;24.53;;;0.40;99.90;;;;;;5007331;28;20276;-54
2023/12/01 01:19:14;;;;;;;72.63;24.00;;;0.40;99.90;;;;;;5011086;28;20307;-55
2023/12/01 01:21:42;;;;;;;85.43;24.50;;;0.40;99.90;;;;;;5013120;28;20218;-55
2023/12/01 01:24:11;;;;;;;85.17;25.67;;;0.40;99.90;;;;;;5012940;28;20219;-54
2023/12/01 01:26:42;;;;;;;74.00;24.60;;;0.40;99.90;;;;;;5013778;28;20228;-55
2023/12/01 01:29:14;;;;;;;79.40;23.90;;;0.50;99.90;;;;;;5012198;28;20222;-54
2023/12/01 01:31:43;;;;;;;75.10;23.80;;;0.40;99.90;;;;;;5007812;28;20206;-50
2023/12/01 01:34:11;;;;;;;81.07;24.57;;;0.50;99.90;;;;;;5011103;28;20257;-51
2023/12/01 01:36:39;;;;;;;76.73;23.23;;;0.50;99.90;;;;;;5011339;28;20224;-49
2023/12/01 01:39:08;;;;;;;76.23;23.27;;;0.50;99.90;;;;;;5012463;28;20221;-50
2023/12/01 01:41:36;;;;;;;72.80;24.40;;;0.50;99.90;;;;;;5005770;28;20245;-52
2023/12/01 01:44:04;;;;;;;77.00;25.07;;;0.40;99.90;;;;;;5010094;28;20206;-52
2023/12/01 01:46:35;;;;;;;80.87;23.60;;;0.40;99.90;;;;;;5009713;28;20199;-53
2023/12/01 01:49:05;;;;;;;68.93;23.33;;;0.40;99.90;;;;;;5007429;28;20272;-53
2023/12/01 01:51:35;;;;;;;70.67;22.83;;;0.40;99.90;;;;;;5011569;28;20688;-50
2023/12/01 01:54:04;;;;;;;67.07;23.13;;;0.40;99.90;;;;;;5012176;28;20224;-52
2023/12/01 01:56:33;;;;;;;69.40;23.70;;;0.40;99.90;;;;;;5011732;28;20218;-52
2023/12/01 01:59:01;;;;;;;73.20;22.47;;;0.40;99.90;;;;;;4993083;28;20178;-49
2023/12/01 02:01:29;;;;;;;68.00;22.70;;;0.40;99.90;;;;;;5008522;28;20217;-51
2023/12/01 02:03:59;;;;;;;58.67;22.27;;;0.40;99.90;;;;;;5005593;28;20604;-51
2023/12/01 02:06:32;;;;;;;73.43;22.23;;;0.40;99.90;;;;;;5010407;28;20232;-49
2023/12/01 02:09:02;;;;;;;68.27;23.40;;;0.40;99.90;;;;;;5011141;28;20645;-52
2023/12/01 02:11:30;;;;;;;73.17;22.80;;;0.40;99.90;;;;;;5010281;28;20246;-50
2023/12/01 02:14:00;;;;;;;77.00;23.43;;;0.40;99.90;;;;;;5007281;28;20202;-49
2023/12/01 02:16:28;;;;;;;71.73;23.53;;;0.40;99.90;;;;;;5011586;28;20186;-50
2023/12/01 02:18:57;;;;;;;67.50;22.37;;;0.40;99.90;;;;;;5011326;28;20229;-51
2023/12/01 02:21:27;;;;;;;68.17;22.70;;;0.30;99.90;;;;;;5009871;28;20250;-50
2023/12/01 02:23:57;;;;;;;70.07;23.27;;;0.30;99.90;;;;;;5013236;28;20558;-50
2023/12/01 02:26:25;;;;;;;74.50;23.50;;;0.40;99.90;;;;;;5008011;28;20218;-52
2023/12/01 02:28:53;;;;;;;81.87;24.47;;;0.40;99.90;;;;;;5009885;28;20194;-52
2023/12/01 02:31:22;;;;;;;74.77;22.87;;;0.40;99.90;;;;;;5010995;28;20191;-51
2023/12/01 02:33:53;;;;;;;65.63;22.43;;;0.40;99.90;;;;;;5007600;28;20257;-54
2023/12/01 02:36:22;;;;;;;69.00;23.33;;;0.40;99.90;;;;;;5010585;28;20218;-50
2023/12/01 02:38:51;;;;;;;72.67;23.63;;;0.50;99.90;;;;;;5011743;28;20217;-49
2023/12/01 02:41:20;;;;;;;71.00;24.07;;;0.40;99.90;;;;;;5009655;28;20226;-52
2023/12/01 02:43:49;;;;;;;68.03;23.27;;;0.40;99.90;;;;;;5009769;28;20214;-49
2023/12/01 02:46:22;;;;;;;71.13;23.57;;;0.40;99.90;;;;;;5008745;28;20225;-51
2023/12/01 02:48:51;;;;;;;70.27;23.40;;;0.40;99.90;;;;;;5009914;28;20276;-49
2023/12/01 02:51:20;;;;;;;70.70;23.60;;;0.40;99.90;;;;;;5007953;28;20214;-54
2023/12/01 02:53:48;;;;;;;68.60;23.57;;;0.40;99.90;;;;;;5007870;28;20218;-51
2023/12/01 02:56:16;;;;;;;73.97;24.20;;;0.40;99.90;;;;;;5009757;28;20221;-49
2023/12/01 02:58:46;;;;;;;68.70;24.03;;;0.40;99.90;;;;;;4992531;28;20194;-50
2023/12/01 03:01:14;;;;;;;62.57;22.83;;;0.40;99.90;;;;;;5009097;28;20373;-52
2023/12/01 03:03:43;;;;;;;69.73;23.43;;;0.40;99.90;;;;;;5006911;28;20222;-52
2023/12/01 03:06:11;;;;;;;67.70;22.63;;;0.50;99.90;;;;;;5010611;28;20309;-50
2023/12/01 03:08:39;;;;;;;65.60;22.93;;;0.40;99.90;;;;;;5010288;28;20570;-53
2023/12/01 03:11:07;;;;;;;65.97;23.13;;;0.40;99.90;;;;;;5010279;28;20317;-51
2023/12/01 03:13:36;;;;;;;65.20;23.63;;;0.40;99.90;;;;;;5008840;28;20263;-51
2023/12/01 03:16:06;;;;;;;65.80;22.10;;;0.40;99.90;;;;;;5003805;28;20230;-53
2023/12/01 03:18:35;;;;;;;64.43;23.97;;;0.40;99.90;;;;;;5010330;28;20218;-52
2023/12/01 03:21:12;;;;;;;61.50;21.87;;;0.40;99.90;;;;;;5009863;28;20220;-52
2023/12/01 03:23:43;;;;;;;66.90;22.63;;;0.50;99.90;;;;;;5007338;28;20247;-52
2023/12/01 03:26:16;;;;;;;64.33;22.33;;;0.50;99.90;;;;;;5009511;28;20710;-52
2023/12/01 03:28:45;;;;;;;66.23;23.17;;;0.60;99.90;;;;;;5011865;28;20240;-50
2023/12/01 03:31:15;;;;;;;64.83;24.27;;;0.60;99.90;;;;;;5009786;28;20238;-49
2023/12/01 03:33:44;;;;;;;55.50;22.33;;;0.60;99.90;;;;;;5009663;28;20233;-53
2023/12/01 03:36:12;;;;;;;59.73;23.30;;;0.60;99.90;;;;;;5010448;28;20222;-53
2023/12/01 03:38:40;;;;;;;64.50;23.00;;;0.60;99.90;;;;;;5013512;28;20218;-54
2023/12/01 03:41:09;;;;;;;63.93;24.00;;;0.60;99.90;;;;;;5011402;28;20225;-53
2023/12/01 03:43:37;;;;;;;64.97;24.53;;;0.60;99.90;;;;;;5012953;28;20198;-52
2023/12/01 03:46:06;;;;;;;64.70;24.03;;;0.60;99.90;;;;;;5013208;28;20225;-53
2023/12/01 03:48:36;;;;;;;63.73;23.70;;;0.60;99.90;;;;;;5010942;28;20471;-50
2023/12/01 03:51:05;;;;;;;64.43;23.33;;;0.60;99.90;;;;;;5014190;28;20712;-52
2023/12/01 03:53:33;;;;;;;66.60;23.77;;;0.70;99.90;;;;;;5011807;28;20222;-54
2023/12/01 03:56:01;;;;;;;65.13;24.80;;;0.70;99.90;;;;;;5016272;28;20220;-53
2023/12/01 03:58:30;;;;;;;59.70;24.57;;;0.70;99.90;;;;;;5013480;28;20195;-54
2023/12/01 04:00:58;;;;;;;62.73;23.83;;;0.70;99.90;;;;;;5014139;28;20233;-53
2023/12/01 04:03:26;;;;;;;62.97;23.87;;;0.70;99.90;;;;;;5013375;28;20253;-54
2023/12/01 04:06:01;;;;;;;61.30;23.37;;;0.70;99.90;;;;;;5014864;28;20246;-53
2023/12/01 04:08:29;;;;;;;58.37;24.57;;;0.70;99.90;;;;;;5010862;28;20216;-52
2023/12/01 04:10:57;;;;;;;57.27;23.33;;;0.70;99.90;;;;;;5011845;28;20271;-51
2023/12/01 04:13:27;;;;;;;54.50;23.83;;;0.70;99.90;;;;;;5012739;28;20212;-52
2023/12/01 04:15:55;;;;;;;58.20;23.60;;;0.70;99.90;;;;;;5010814;28;20226;-52
2023/12/01 04:18:23;;;;;;;57.97;23.90;;;0.70;99.90;;;;;;5013470;28;20210;-52
2023/12/01 04:20:51;;;;;;;63.10;24.17;;;0.70;99.90;;;;;;5014663;28;20606;-50
2023/12/01 04:23:21;;;;;;;63.30;24.93;;;0.80;99.90;;;;;;5013616;28;20684;-52
2023/12/01 04:25:50;;;;;;;64.03;24.23;;;0.80;99.90;;;;;;5009944;28;20209;-52
2023/12/01 04:28:18;;;;;;;59.87;24.60;;;0.80;99.90;;;;;;5012581;28;20202;-53
2023/12/01 04:30:46;;;;;;;64.30;24.63;;;0.80;99.90;;;;;;5013407;28;20214;-53
2023/12/01 04:33:15;;;;;;;58.53;24.10;;;0.80;99.90;;;;;;5009640;28;20568;-50
2023/12/01 04:35:43;;;;;;;63.37;25.03;;;0.90;99.90;;;;;;5012079;28;20222;-51
2023/12/01 04:38:11;;;;;;;64.03;24.13;;;0.90;99.90;;;;;;5009729;28;20217;-50
2023/12/01 04:40:41;;;;;;;63.27;23.87;;;0.90;99.90;;;;;;5012226;28;20196;-53
2023/12/01 04:43:09;;;;;;;59.27;24.40;;;0.80;99.90;;;;;;5008940;28;20230;-49
2023/12/01 04:45:38;;;;;;;56.30;24.00;;;0.90;99.90;;;;;;5012786;28;20222;-50
2023/12/01 04:48:08;;;;;;;56.30;24.20;;;0.90;99.90;;;;;;5010449;28;20272;-52
2023/12/01 04:50:46;;;;;;;63.97;24.47;;;0.90;99.90;;;;;;5010676;28;20246;-48
2023/12/01 04:53:14;;;;;;;60.70;24.60;;;0.90;99.90;;;;;;5013392;28;20830;-50
2023/12/01 04:55:46;;;;;;;60.80;25.20;;;0.90;99.90;;;;;;5014034;28;20256;-50
2023/12/01 04:58:15;;;;;;;54.80;23.43;;;0.90;99.90;;;;;;4973120;28;20713;-52
2023/12/01 05:00:43;;;;;;;55.23;24.83;;;0.90;99.90;;;;;;4972024;28;20259;-49
2023/12/01 05:03:11;;;;;;;56.73;24.80;;;0.90;99.90;;;;;;4972476;28;20270;-49
2023/12/01 05:05:41;;;;;;;56.63;24.80;;;1.00;99.90;;;;;;4970991;28;20223;-50
2023/12/01 05:08:10;;;;;;;59.87;24.90;;;0.90;99.90;;;;;;4971227;28;20238;-50
2023/12/01 05:10:44;;;;;;;55.10;24.63;;;1.00;99.90;;;;;;4973080;28;20266;-48
2023/12/01 05:13:15;;;;;;;52.40;23.40;;;0.90;99.90;;;;;;4970286;28;20854;-49
2023/12/01 05:15:46;;;;;;;52.67;22.80;;;0.90;99.90;;;;;;4973953;28;20226;-52
2023/12/01 05:18:14;;;;;;;47.40;21.37;;;1.00;99.90;;;;;;4972110;28;20227;-52
2023/12/01 05:20:43;;;;;;;55.10;22.73;;;0.90;99.90;;;;;;4975711;28;20613;-49
2023/12/01 05:23:16;;;;;;;49.20;21.17;;;0.90;99.90;;;;;;4972908;28;20227;-50
2023/12/01 05:25:46;;;;;;;50.03;22.70;;;0.90;99.90;;;;;;4972403;28;20541;-52
2023/12/01 05:28:16;;;;;;;55.93;22.77;;;0.90;99.90;;;;;;4972106;28;20212;-52
2023/12/01 05:30:46;;;;;;;52.07;22.23;;;0.90;99.90;;;;;;4972038;28;20278;-52
2023/12/01 05:33:15;;;;;;;50.23;21.57;;;0.90;99.90;;;;;;4972092;28;20581;-52
2023/12/01 05:35:43;;;;;;;57.17;22.57;;;0.90;99.90;;;;;;4968552;28;20220;-53
2023/12/01 05:38:13;;;;;;;55.37;23.13;;;0.90;99.90;;;;;;4972482;28;20219;-53
2023/12/01 05:40:41;;;;;;;53.53;23.33;;;0.90;99.90;;;;;;4972119;28;20657;-53
2023/12/01 05:43:09;;;;;;;59.53;23.87;;;0.90;99.90;;;;;;4972528;28;20227;-52
2023/12/01 05:45:39;;;;;;;56.67;23.63;;;0.90;99.90;;;;;;4971351;28;20219;-51
2023/12/01 05:48:07;;;;;;;53.10;24.27;;;0.90;99.90;;;;;;4972898;28;20230;-53
2023/12/01 05:50:41;;;;;;;53.53;22.73;;;0.90;99.90;;;;;;4969671;28;20229;-53
2023/12/01 05:53:13;;;;;;;58.60;23.27;;;0.90;99.90;;;;;;4969911;28;20248;-52
2023/12/01 05:55:42;;;;;;;56.63;23.13;;;0.90;99.90;;;;;;4974987;28;20290;-51
2023/12/01 05:58:13;;;;;;;58.53;23.13;;;0.90;99.90;;;;;;4988843;28;20226;-53
2023/12/01 06:00:43;;;;;;;59.80;24.23;;;0.80;99.90;;;;;;4989899;28;20720;-51
2023/12/01 06:03:12;;;;;;;62.83;24.83;;;0.80;99.90;;;;;;4991844;28;20653;-52
2023/12/01 06:05:40;;;;;;;61.37;24.47;;;0.80;99.90;;;;;;4990468;28;20214;-50
2023/12/01 06:08:09;;;;;;;56.63;22.90;;;0.80;99.90;;;;;;4992088;28;20227;-52
2023/12/01 06:10:39;;;;;;;67.13;30.73;;;0.80;99.90;;;;;;5005528;28;20434;-53
2023/12/01 06:13:07;;;;;;;58.10;25.47;;;0.80;99.90;;;;;;4990709;28;20690;-53
2023/12/01 06:15:36;;;;;;;64.67;25.67;;;0.80;99.90;;;;;;4991546;28;20700;-53
2023/12/01 06:18:08;;;;;;;60.90;25.47;;;0.80;99.90;;;;;;4989933;28;20692;-52
2023/12/01 06:20:37;;;;;;;60.17;25.43;;;0.80;99.90;;;;;;4990241;28;20218;-52
2023/12/01 06:23:08;;;;;;;58.27;23.93;;;0.80;99.90;;;;;;4992171;28;20198;-50
2023/12/01 06:25:41;;;;;;;56.87;23.67;;;0.80;99.90;;;;;;4992981;28;20285;-53
2023/12/01 06:28:10;;;;;;;54.77;23.73;;;0.70;99.90;;;;;;4990993;28;20234;-53
2023/12/01 06:30:40;;;;;;;60.40;22.90;;;0.70;99.90;;;;;;4990868;28;20215;-55
2023/12/01 06:33:10;;;;;;;56.10;22.43;;;0.70;99.90;;;;;;4993448;28;20233;-52
2023/12/01 06:35:38;;;;;;;53.90;21.93;;;0.70;99.90;;;;;;4986157;28;20689;-54
2023/12/01 06:38:07;;;;;;;55.33;22.80;;;0.70;99.90;;;;;;4989436;28;20581;-52
2023/12/01 06:40:36;;;;;;;49.80;20.27;;;0.80;99.90;;;;;;4992326;28;20849;-55
2023/12/01 06:43:09;;;;;;;52.67;21.80;;;0.80;99.90;;;;;;4989103;28;20648;-52
2023/12/01 06:45:41;;;;;;;54.40;21.20;;;0.80;99.90;;;;;;4988988;28;20305;-54
2023/12/01 06:48:12;;;;;;;52.90;22.23;;;0.70;99.90;;;;;;4986759;28;20281;-54
2023/12/01 06:50:41;;;;;;;52.47;21.63;;;0.70;99.90;;;;;;4987100;28;20247;-52
2023/12/01 06:53:10;;;;;;;48.57;20.37;;;0.70;99.90;;;;;;4988413;28;20230;-50
2023/12/01 06:55:39;;;;;;;54.70;22.07;;;0.60;99.90;;;;;;4992365;28;20599;-52
2023/12/01 06:58:09;;;;;;;55.20;21.37;;;0.70;99.90;;;;;;5008564;28;20229;-52
2023/12/01 07:00:39;;;;;;;48.23;20.70;;;0.70;99.90;;;;;;5009749;28;20270;-52
2023/12/01 07:03:09;;;;;;;54.03;20.97;;;0.70;99.90;;;;;;5012111;28;20324;-52
2023/12/01 07:05:43;;;;;;;52.77;20.93;;;0.70;99.90;;;;;;5006283;28;20309;-53
2023/12/01 07:08:13;;;;;;;54.00;21.30;;;0.60;99.90;;;;;;4991089;28;20309;-53
2023/12/01 07:10:43;;;;;;;48.37;21.37;;;0.60;99.90;;;;;;5012679;28;20205;-52
2023/12/01 07:13:11;;;;;;;47.87;20.03;;;0.50;99.90;;;;;;5007968;28;20225;-51
2023/12/01 07:15:40;;;;;;;48.50;19.13;;;0.50;99.90;;;;;;5008051;28;20226;-52
2023/12/01 07:18:09;;;;;;;51.80;18.93;;;0.50;99.90;;;;;;5012002;28;20234;-51
2023/12/01 07:20:39;;;;;;;47.80;18.43;;;0.50;99.90;;;;;;4998868;28;20221;-49
2023/12/01 07:23:08;;;;;;;41.40;17.53;;;0.50;99.90;;;;;;5013636;28;20222;-51
2023/12/01 07:25:36;;;;;;;49.00;20.13;;;0.50;99.90;;;;;;5014293;28;20645;-51
2023/12/01 07:28:06;;;;;;;56.77;22.03;;;0.50;99.90;;;;;;5011567;28;21012;-51
2023/12/01 07:30:34;;;;;;;51.70;20.07;;;0.50;99.90;;;;;;5010139;28;20324;-51
2023/12/01 07:33:05;;;;;;;52.57;20.50;;;0.50;99.90;;;;;;5007463;28;20273;-52
2023/12/01 07:35:34;;;;;;;45.87;18.77;;;0.40;99.90;;;;;;5008411;28;20214;-52
2023/12/01 07:38:04;;;;;;;51.37;19.30;;;0.30;99.90;;;;;;5006695;28;20186;-51
2023/12/01 07:40:33;;;;;;;52.17;19.90;;;0.40;99.90;;;;;;5010539;28;20636;-50
2023/12/01 07:43:02;;;;;;;54.77;21.37;;;0.40;99.90;;;;;;5011455;28;20297;-50
2023/12/01 07:45:31;;;;;;;54.77;20.13;;;0.40;99.90;;;;;;5008218;28;20225;-52
2023/12/01 07:47:59;;;;;;;49.27;18.70;;;0.30;99.90;;;;;;5005229;28;20588;-51
2023/12/01 07:50:27;;;;;;;48.83;18.10;;;0.30;99.90;;;;;;5007054;28;20230;-52
2023/12/01 07:52:56;;;;;;;52.23;18.67;;;0.30;99.90;;;;;;5005778;28;20234;-49
2023/12/01 07:55:27;;;;;;;51.73;20.37;;;0.30;99.90;;;;;;5010336;28;20664;-50
2023/12/01 07:57:55;;;;;;;53.50;18.13;;;0.30;99.90;;;;;;5006789;28;20238;-52
2023/12/01 08:00:24;;;;;;;45.87;17.83;;;0.20;99.90;;;;;;5007973;28;20309;-52
2023/12/01 08:02:53;;;;;;;48.10;18.07;;;0.30;99.90;;;;;;5008542;28;20226;-49
2023/12/01 08:05:23;;;;;;;53.77;18.93;;;0.20;99.90;;;;;;5006605;28;20309;-50
2023/12/01 08:07:54;;;;;;;45.60;17.80;;;0.20;99.90;;;;;;5009653;28;20191;-55
2023/12/01 08:10:28;;;;;;;53.40;19.13;;;0.30;99.90;;;;;;5007466;28;20252;-51
2023/12/01 08:12:59;;;;;;;49.37;19.50;;;0.30;99.90;;;;;;5005983;28;20249;-50
2023/12/01 08:15:30;;;;;;;51.13;19.70;;;0.30;99.90;;;;;;5007856;28;20573;-53
2023/12/01 08:17:59;;;;;;;56.00;20.00;;;0.30;99.90;;;;;;5012356;28;20264;-51
2023/12/01 08:20:29;;;;;;;41.87;17.27;;;0.40;99.90;;;;;;4992329;28;20305;-52
2023/12/01 08:22:59;;;;;;;47.93;17.30;;;0.40;99.90;;;;;;5009516;28;20273;-54
2023/12/01 08:25:31;;;;;;;53.80;19.10;;;0.40;99.90;;;;;;4994961;28;20194;-51
2023/12/01 08:27:59;;;;;;;51.00;17.77;;;0.40;99.90;;;;;;5013418;28;20217;-49
2023/12/01 08:30:28;;;;;;;54.00;19.43;;;0.40;99.90;;;;;;5011471;28;20222;-51
2023/12/01 08:32:57;;;;;;;54.83;18.90;;;0.40;99.90;;;;;;5008923;28;20222;-51
2023/12/01 08:35:26;;;;;;;59.37;20.73;;;0.40;99.90;;;;;;4993557;28;20222;-54
2023/12/01 08:37:55;;;;;;;56.37;22.17;;;0.40;99.90;;;;;;5013338;28;20198;-51
2023/12/01 08:40:23;;;;;;;51.53;20.63;;;0.40;99.90;;;;;;5008883;28;20556;-54
2023/12/01 08:42:56;;;;;;;55.90;19.60;;;0.50;99.90;;;;;;5011794;28;20214;-53
2023/12/01 08:45:25;;;;;;;55.30;19.67;;;0.40;99.90;;;;;;5011860;28;20615;-49
2023/12/01 08:47:53;;;;;;;52.23;19.67;;;0.40;99.90;;;;;;5011897;28;20218;-52
2023/12/01 08:50:22;;;;;;;50.30;18.60;;;0.40;99.90;;;;;;5011795;28;20635;-52
2023/12/01 08:52:51;;;;;;;49.83;19.93;;;0.50;99.90;;;;;;5012408;28;20214;-53
2023/12/01 08:55:19;;;;;;;50.60;17.97;;;0.50;99.90;;;;;;4995589;28;20252;-53
2023/12/01 08:57:47;;;;;;;50.37;18.17;;;0.50;99.90;;;;;;5012792;28;20230;-53
2023/12/01 09:00:20;;;;;;;53.93;17.03;;;0.40;99.90;;;;;;5007321;28;20225;-52
2023/12/01 09:02:51;;;;;;;49.50;18.33;;;0.40;99.90;;;;;;5013529;28;20793;-53
2023/12/01 09:05:20;;;;;;;53.67;18.47;;;0.40;99.90;;;;;;5011550;28;20226;-54
2023/12/01 09:07:48;;;;;;;58.30;18.83;;;0.40;99.90;;;;;;5008118;28;20202;-55
2023/12/01 09:10:19;;;;;;;52.60;19.10;;;0.40;99.90;;;;;;5013645;28;20201;-52
2023/12/01 09:12:49;;;;;;;59.90;19.40;;;0.50;99.90;;;;;;5010796;28;20234;-54
2023/12/01 09:15:19;;;;;;;55.03;18.83;;;0.60;99.90;;;;;;4996275;28;20230;-54
2023/12/01 09:17:48;;;;;;;64.90;19.83;;;0.60;99.90;;;;;;5009648;28;20213;-52
2023/12/01 09:20:16;;;;;;;61.23;18.73;;;0.60;99.90;;;;;;5010614;28;20221;-54
2023/12/01 09:22:45;;;;;;;64.33;21.20;;;0.60;99.90;;;;;;5012299;28;20298;-53
2023/12/01 09:25:13;;;;;;;63.17;20.43;;;0.60;99.90;;;;;;5011773;28;20300;-55
2023/12/01 09:27:42;;;;;;;63.83;21.20;;;0.60;99.90;;;;;;5013760;28;20222;-54
2023/12/01 09:30:15;;;;;;;60.03;20.40;;;0.60;99.90;;;;;;5012413;28;20565;-49
2023/12/01 09:32:46;;;;;;;65.87;21.87;;;0.60;99.90;;;;;;5012043;28;20217;-54
2023/12/01 09:35:16;;;;;;;65.03;20.03;;;0.60;99.90;;;;;;5008286;28;20224;-53
2023/12/01 09:38:04;;;;;;;63.03;21.07;;;0.70;99.90;;;;;;5010834;28;20238;-53
2023/12/01 09:40:34;;;;;;;69.83;22.57;;;0.60;99.90;;;;;;5011784;28;20205;-50
2023/12/01 09:43:03;;;;;;;67.27;23.10;;;0.70;99.90;;;;;;5009197;28;20246;-49
2023/12/01 09:45:32;;;;;;;72.60;23.00;;;0.70;99.90;;;;;;5012656;28;20246;-50
2023/12/01 09:48:04;;;;;;;69.30;21.40;;;0.70;99.90;;;;;;5013009;28;20230;-52
2023/12/01 09:50:33;;;;;;;76.03;24.23;;;0.70;99.90;;;;;;5012983;28;20854;-49
2023/12/01 09:53:02;;;;;;;74.43;24.00;;;0.70;99.90;;;;;;5012391;28;20233;-53
2023/12/01 09:55:31;;;;;;;70.50;22.00;;;0.70;99.90;;;;;;5013052;28;20581;-52
2023/12/01 09:58:00;;;;;;;74.37;23.83;;;0.80;99.90;;;;;;5010985;28;20305;-52
2023/12/01 10:00:28;;;;;;;78.27;23.97;;;0.70;99.90;;;;;;5008086;28;20588;-51
2023/12/01 10:02:57;;;;;;;71.90;23.53;;;0.70;99.90;;;;;;5009714;28;20226;-50
2023/12/01 10:05:28;;;;;;;75.47;23.60;;;0.60;99.90;;;;;;4997128;28;20751;-50
2023/12/01 10:07:57;;;;;;;74.97;23.43;;;0.60;99.90;;;;;;5010664;28;20191;-50
2023/12/01 10:10:26;;;;;;;79.47;23.13;;;0.50;99.90;;;;;;5009454;28;20252;-52
2023/12/01 10:12:56;;;;;;;78.27;23.27;;;0.60;99.90;;;;;;5006837;28;20229;-52
2023/12/01 10:15:26;;;;;;;66.63;21.90;;;0.50;99.90;;;;;;5006394;28;20229;-50
2023/12/01 10:18:08;;;;;;;77.43;23.53;;;0.60;99.90;;;;;;5009363;28;20226;-52
2023/12/01 10:20:41;;;;;;;72.20;22.87;;;0.60;99.90;;;;;;5011311;28;20241;-50
2023/12/01 10:23:18;;;;;;;74.10;22.60;;;0.60;99.90;;;;;;5012596;28;20249;-50
2023/12/01 10:25:49;;;;;;;70.53;23.47;;;0.60;99.90;;;;;;5008071;28;20209;-49
2023/12/01 10:28:17;;;;;;;73.73;23.57;;;0.60;99.90;;;;;;5014863;28;20217;-52
2023/12/01 10:30:54;;;;;;;75.93;25.20;;;0.70;99.90;;;;;;5011594;28;20225;-53
2023/12/01 10:33:22;;;;;;;73.83;23.37;;;0.70;99.90;;;;;;5008978;28;20221;-51
2023/12/01 10:36:05;;;;;;;71.83;23.87;;;0.70;99.90;;;;;;5010906;28;20306;-50
2023/12/01 10:38:34;;;;;;;80.40;24.70;;;0.70;99.90;;;;;;5010764;28;20268;-48
2023/12/01 10:41:04;;;;;;;65.23;21.87;;;0.60;99.90;;;;;;5012100;28;20194;-50
2023/12/01 10:43:34;;;;;;;73.60;24.10;;;0.60;99.90;;;;;;5011593;28;20746;-50
2023/12/01 10:46:04;;;;;;;76.30;24.07;;;0.60;99.90;;;;;;5011428;28;20226;-51
2023/12/01 10:48:33;;;;;;;73.93;23.73;;;0.60;99.90;;;;;;5010920;28;20221;-53
2023/12/01 10:51:05;;;;;;;71.53;23.57;;;0.60;99.90;;;;;;5004286;28;20320;-52
2023/12/01 10:53:36;;;;;;;71.97;24.60;;;0.60;99.90;;;;;;5010312;28;20233;-49
2023/12/01 10:56:08;;;;;;;77.70;25.53;;;0.60;99.90;;;;;;5010865;28;20194;-52
2023/12/01 10:58:40;;;;;;;77.27;24.33;;;0.70;99.90;;;;;;5011043;28;20198;-52
2023/12/01 11:01:09;;;;;;;72.67;24.07;;;0.70;99.90;;;;;;4994021;28;20232;-53
2023/12/01 11:03:41;;;;;;;71.40;24.83;;;0.70;99.90;;;;;;5009723;28;20697;-53
2023/12/01 11:06:21;;;;;;;75.97;25.87;;;0.60;99.90;;;;;;5007320;28;20224;-53
2023/12/01 11:09:01;;;;;;;79.60;26.20;;;0.70;99.90;;;;;;5009330;28;20217;-51
2023/12/01 11:11:39;;;;;;;75.13;25.83;;;0.80;99.90;;;;;;5009209;28;20222;-54
2023/12/01 11:14:17;;;;;;;79.53;25.57;;;0.80;99.90;;;;;;5013615;28;20226;-53
2023/12/01 11:16:48;;;;;;;71.07;24.57;;;0.80;99.90;;;;;;5006224;28;20538;-54
2023/12/01 11:19:18;;;;;;;79.67;26.87;;;0.80;99.90;;;;;;4994181;28;20247;-50
2023/12/01 11:21:55;;;;;;;73.63;26.00;;;0.80;99.90;;;;;;5010676;28;20232;-54
2023/12/01 11:24:25;;;;;;;81.73;26.47;;;1.00;99.90;;;;;;5006155;28;20214;-53
2023/12/01 11:26:55;;;;;;;78.17;26.90;;;1.10;99.90;;;;;;4999564;28;20300;-52
2023/12/01 11:29:31;;;;;;;82.97;26.13;;;0.90;99.90;;;;;;5010495;28;20268;-53
2023/12/01 11:31:59;;;;;;;84.33;26.77;;;0.80;99.90;;;;;;5007696;28;20204;-50
2023/12/01 11:34:27;;;;;;;78.63;25.77;;;0.90;99.90;;;;;;5008241;28;20207;-53
2023/12/01 11:37:00;;;;;;;84.00;26.87;;;1.00;99.90;;;;;;5007571;28;20304;-54
2023/12/01 11:39:29;;;;;;;82.43;26.13;;;1.00;99.90;;;;;;5007556;28;20732;-55
2023/12/01 11:42:16;;;;;;;83.53;28.00;;;1.00;99.90;;;;;;5010884;28;20217;-53
2023/12/01 11:44:44;;;;;;;78.90;25.87;;;0.90;99.90;;;;;;5011812;28;20229;-54
2023/12/01 11:47:14;;;;;;;76.20;26.17;;;0.90;99.90;;;;;;5008860;28;20696;-55
2023/12/01 11:49:44;;;;;;;81.43;26.70;;;1.00;99.90;;;;;;5009332;28;20190;-53
2023/12/01 11:52:18;;;;;;;76.00;26.73;;;1.00;99.90;;;;;;5011102;28;20217;-54
2023/12/01 11:54:48;;;;;;;84.07;26.87;;;1.00;99.90;;;;;;5014078;28;20611;-55
2023/12/01 11:57:17;;;;;;;78.83;25.97;;;1.00;99.90;;;;;;5012892;28;20222;-53
2023/12/01 11:59:49;;;;;;;86.33;25.93;;;0.90;99.90;;;;;;5012193;28;20313;-53
2023/12/01 12:02:29;;;;;;;85.10;26.07;;;0.90;99.90;;;;;;5012712;28;20249;-55
2023/12/01 12:05:00;;;;;;;81.83;26.67;;;1.00;99.90;;;;;;5011620;28;20214;-52
2023/12/01 12:07:31;;;;;;;79.33;27.07;;;1.10;99.90;;;;;;5011847;28;20818;-55
2023/12/01 12:09:59;;;;;;;74.00;25.77;;;1.10;99.90;;;;;;4995480;28;20240;-51
2023/12/01 12:12:30;;;;;;;74.27;25.27;;;1.20;99.90;;;;;;5010838;28;20700;-52
2023/12/01 12:15:06;;;;;;;69.63;24.73;;;1.10;99.90;;;;;;5009397;28;20236;-50
2023/12/01 12:17:37;;;;;;;78.17;24.83;;;1.10;99.90;;;;;;5013195;28;20213;-50
2023/12/01 12:20:09;;;;;;;69.00;24.20;;;1.20;99.90;;;;;;4998390;28;20732;-52
2023/12/01 12:22:45;;;;;;;77.53;25.60;;;1.20;99.90;;;;;;5013494;28;20281;-53
2023/12/01 12:25:14;;;;;;;70.00;24.83;;;1.10;99.90;;;;;;5012393;28;20227;-51
2023/12/01 12:27:43;;;;;;;74.30;24.67;;;1.10;99.90;;;;;;5013822;28;20214;-49
2023/12/01 12:30:12;;;;;;;65.90;24.03;;;1.10;99.90;;;;;;5011277;28;20226;-51
2023/12/01 12:32:41;;;;;;;67.93;23.97;;;1.20;99.90;;;;;;5013549;28;20221;-50
2023/12/01 12:35:13;;;;;;;70.17;24.50;;;1.20;99.90;;;;;;5013947;28;20249;-50
2023/12/01 12:37:42;;;;;;;66.10;23.07;;;1.20;99.90;;;;;;5014281;28;20186;-50
2023/12/01 12:40:16;;;;;;;66.93;23.00;;;1.20;99.90;;;;;;5013065;28;20229;-50
2023/12/01 12:42:55;;;;;;;64.57;23.00;;;1.20;99.90;;;;;;5009300;28;20233;-49
2023/12/01 12:45:23;;;;;;;63.17;23.10;;;1.30;99.90;;;;;;5012496;28;20296;-51
2023/12/01 12:47:52;;;;;;;59.57;22.03;;;1.30;99.90;;;;;;5009677;28;20346;-52
2023/12/01 12:50:20;;;;;;;51.80;21.20;;;1.30;99.90;;;;;;5013399;28;20229;-49